Time;durP1;ratioP1;P1;durP2;ratioP2;P2;SDS_P1;SDS_P2;PMS_P1;PMS_P2;Temp;Humidity;BMP_temperature;BMP_pressure;BME280_temperature;BME280_humidity;BME280_pressure;Samples;Min_cycle;Max_cycle;Signal;HPM_P1;HPM_P2
2023/05/05 00:00:12;;;;;;;7.35;4.68;;;;;;;;;;5071750;28;20052;-78
2023/05/05 00:02:38;;;;;;;6.22;3.72;;;;;;;;;;5093516;28;20013;-78
2023/05/05 00:05:06;;;;;;;4.55;3.65;;;;;;;;;;5075728;28;20028;-78
2023/05/05 00:07:32;;;;;;;5.18;4.05;;;;;;;;;;5093221;28;20051;-78
2023/05/05 00:09:58;;;;;;;5.95;3.50;;;;;;;;;;5089416;28;20314;-79
2023/05/05 00:12:24;;;;;;;5.95;3.95;;;;;;;;;;5093135;28;20009;-79
2023/05/05 00:14:50;;;;;;;7.15;4.07;;;;;;;;;;5072915;28;20017;-79
2023/05/05 00:17:16;;;;;;;6.10;3.25;;;;;;;;;;5076009;28;20036;-80
2023/05/05 00:19:45;;;;;;;5.97;4.00;;;;;;;;;;5088842;28;20024;-79
2023/05/05 00:22:11;;;;;;;19.92;4.97;;;;;;;;;;5077883;28;20036;-80
2023/05/05 00:24:37;;;;;;;7.53;3.78;;;;;;;;;;5092814;28;20012;-79
2023/05/05 00:27:03;;;;;;;8.55;4.13;;;;;;;;;;5074773;28;20020;-78
2023/05/05 00:29:30;;;;;;;4.80;3.38;;;;;;;;;;5075798;28;20029;-79
2023/05/05 00:31:56;;;;;;;6.07;3.90;;;;;;;;;;5074619;28;20036;-82
2023/05/05 00:34:23;;;;;;;5.57;3.83;;;;;;;;;;5093218;28;20044;-80
2023/05/05 00:36:54;;;;;;;5.38;4.00;;;;;;;;;;5073461;28;20307;-78
2023/05/05 00:39:20;;;;;;;5.43;3.97;;;;;;;;;;5077055;28;20037;-78
2023/05/05 00:41:49;;;;;;;10.13;4.68;;;;;;;;;;5074177;28;20021;-79
2023/05/05 00:44:15;;;;;;;15.10;4.50;;;;;;;;;;5090415;28;20060;-77
2023/05/05 00:46:42;;;;;;;5.20;3.70;;;;;;;;;;5072966;28;20046;-80
2023/05/05 00:49:15;;;;;;;11.98;4.43;;;;;;;;;;5076404;28;20027;-79
2023/05/05 00:51:41;;;;;;;;;;;;;;;;;;5089147;28;20062;-78
2023/05/05 00:54:07;;;;;;;5.68;4.05;;;;;;;;;;5077267;28;19908;-79
2023/05/05 00:56:35;;;;;;;5.55;4.28;;;;;;;;;;5078064;28;20016;-79
2023/05/05 00:59:02;;;;;;;5.65;4.15;;;;;;;;;;5075179;28;20018;-77
2023/05/05 01:01:31;;;;;;;6.30;3.75;;;;;;;;;;5088804;28;20065;-78
2023/05/05 01:03:57;;;;;;;7.88;3.97;;;;;;;;;;5072338;28;20016;-79
2023/05/05 01:06:23;;;;;;;8.73;3.90;;;;;;;;;;5077606;28;20044;-77
2023/05/05 01:08:55;;;;;;;5.78;3.85;;;;;;;;;;5073552;28;20029;-78
2023/05/05 01:11:37;;;;;;;6.53;3.95;;;;;;;;;;5078448;28;20025;-81
2023/05/05 01:14:09;;;;;;;7.03;4.03;;;;;;;;;;5075533;28;20025;-79
2023/05/05 01:16:44;;;;;;;10.10;4.15;;;;;;;;;;5075503;28;20040;-78
2023/05/05 01:19:19;;;;;;;7.75;4.10;;;;;;;;;;5093246;28;20202;-78
2023/05/05 01:21:53;;;;;;;5.45;3.72;;;;;;;;;;5076548;28;20024;-79
2023/05/05 01:24:22;;;;;;;5.35;4.38;;;;;;;;;;5088963;28;20032;-79
2023/05/05 01:27:08;;;;;;;7.47;4.43;;;;;;;;;;5088860;28;20276;-77
2023/05/05 01:29:40;;;;;;;11.70;4.83;;;;;;;;;;5078297;28;20013;-78
2023/05/05 01:32:14;;;;;;;7.18;4.47;;;;;;;;;;5076765;28;20040;-79
2023/05/05 01:34:47;;;;;;;7.17;4.63;;;;;;;;;;5078045;28;20017;-78
2023/05/05 01:37:18;;;;;;;5.67;4.70;;;;;;;;;;5076311;28;20023;-78
2023/05/05 01:39:48;;;;;;;6.20;4.60;;;;;;;;;;5076629;28;20040;-78
2023/05/05 01:42:18;;;;;;;9.73;3.97;;;;;;;;;;5079802;28;20228;-78
2023/05/05 01:44:50;;;;;;;8.23;4.53;;;;;;;;;;5090015;28;20021;-79
2023/05/05 01:47:18;;;;;;;5.28;4.35;;;;;;;;;;5079182;28;20013;-78
2023/05/05 01:49:49;;;;;;;5.47;4.60;;;;;;;;;;5075995;28;20095;-78
2023/05/05 01:52:16;;;;;;;6.82;4.40;;;;;;;;;;5075490;28;20025;-79
2023/05/05 01:54:43;;;;;;;8.20;5.13;;;;;;;;;;5092584;28;20037;-78
2023/05/05 01:57:10;;;;;;;7.13;4.63;;;;;;;;;;5076430;28;20025;-78
2023/05/05 01:59:44;;;;;;;7.47;4.87;;;;;;;;;;5094298;28;20044;-78
2023/05/05 02:02:11;;;;;;;6.80;4.60;;;;;;;;;;5074709;28;20025;-79
2023/05/05 02:04:43;;;;;;;9.40;4.73;;;;;;;;;;5080125;28;20053;-78
2023/05/05 02:07:25;;;;;;;5.93;4.35;;;;;;;;;;5095044;28;20040;-78
2023/05/05 02:09:52;;;;;;;10.05;4.47;;;;;;;;;;5082501;28;20052;-78
2023/05/05 02:12:18;;;;;;;9.53;4.77;;;;;;;;;;5099554;28;20091;-79
2023/05/05 02:14:45;;;;;;;8.20;4.90;;;;;;;;;;5080926;28;20025;-79
2023/05/05 02:17:11;;;;;;;5.97;4.57;;;;;;;;;;5080394;28;20036;-79
2023/05/05 02:19:39;;;;;;;7.97;4.93;;;;;;;;;;5081793;28;20043;-78
2023/05/05 02:22:05;;;;;;;6.70;4.67;;;;;;;;;;5083975;28;20029;-78
2023/05/05 02:24:31;;;;;;;9.10;4.80;;;;;;;;;;5082567;28;20017;-78
2023/05/05 02:26:58;;;;;;;7.13;5.17;;;;;;;;;;5080765;28;20048;-78
2023/05/05 02:29:30;;;;;;;8.90;5.40;;;;;;;;;;5083052;28;20029;-78
2023/05/05 02:32:00;;;;;;;9.13;5.20;;;;;;;;;;5097927;28;20017;-78
2023/05/05 02:34:27;;;;;;;8.20;4.90;;;;;;;;;;5082241;28;20009;-79
2023/05/05 02:36:56;;;;;;;8.53;5.63;;;;;;;;;;5081139;28;20051;-78
2023/05/05 02:39:30;;;;;;;12.03;5.17;;;;;;;;;;5092200;28;20013;-80
2023/05/05 02:42:01;;;;;;;7.37;5.20;;;;;;;;;;5079825;28;20024;-78
2023/05/05 02:44:28;;;;;;;9.50;5.68;;;;;;;;;;5081038;28;20013;-78
2023/05/05 02:46:55;;;;;;;6.90;5.17;;;;;;;;;;5081143;28;20017;-78
2023/05/05 02:49:21;;;;;;;9.27;5.00;;;;;;;;;;5079410;28;20080;-78
2023/05/05 02:51:47;;;;;;;8.30;6.00;;;;;;;;;;5081053;28;20071;-77
2023/05/05 02:54:15;;;;;;;6.57;4.93;;;;;;;;;;5081305;28;20005;-78
2023/05/05 02:56:47;;;;;;;7.80;5.00;;;;;;;;;;5079613;28;20037;-78
2023/05/05 02:59:29;;;;;;;6.78;5.30;;;;;;;;;;5082051;28;20012;-79
2023/05/05 03:02:15;;;;;;;7.17;5.27;;;;;;;;;;5075352;28;20128;-78
2023/05/05 03:04:43;;;;;;;7.80;5.10;;;;;;;;;;5081652;28;20036;-78
2023/05/05 03:07:17;;;;;;;9.67;5.20;;;;;;;;;;5095807;28;20036;-78
2023/05/05 03:09:45;;;;;;;9.70;6.00;;;;;;;;;;5077762;28;20043;-79
2023/05/05 03:12:16;;;;;;;9.70;5.07;;;;;;;;;;5077173;28;20029;-79
2023/05/05 03:14:44;;;;;;;9.13;5.43;;;;;;;;;;5080444;28;20029;-78
2023/05/05 03:17:11;;;;;;;10.97;5.70;;;;;;;;;;5079093;28;20041;-79
2023/05/05 03:19:38;;;;;;;6.10;4.83;;;;;;;;;;5094001;28;20032;-78
2023/05/05 03:22:04;;;;;;;9.30;6.03;;;;;;;;;;5096983;28;20028;-79
2023/05/05 03:24:30;;;;;;;8.43;5.27;;;;;;;;;;5078991;28;20025;-78
2023/05/05 03:26:59;;;;;;;8.60;5.60;;;;;;;;;;5082019;28;20020;-78
2023/05/05 03:29:25;;;;;;;6.27;5.00;;;;;;;;;;5080048;28;20080;-77
2023/05/05 03:31:51;;;;;;;8.53;5.60;;;;;;;;;;5077871;28;20048;-78
2023/05/05 03:34:17;;;;;;;9.27;5.93;;;;;;;;;;5082657;28;20034;-78
2023/05/05 03:36:43;;;;;;;8.33;6.63;;;;;;;;;;5091643;28;20044;-78
2023/05/05 03:39:09;;;;;;;8.97;5.77;;;;;;;;;;5076986;28;20040;-78
2023/05/05 03:41:35;;;;;;;11.30;6.30;;;;;;;;;;5079331;28;20044;-78
2023/05/05 03:44:01;;;;;;;9.63;5.97;;;;;;;;;;5080534;28;20032;-78
2023/05/05 03:46:27;;;;;;;8.97;6.13;;;;;;;;;;5078442;28;20634;-78
2023/05/05 03:48:55;;;;;;;10.73;6.50;;;;;;;;;;5078121;28;20029;-78
2023/05/05 03:51:22;;;;;;;11.47;6.63;;;;;;;;;;5093630;28;20021;-79
2023/05/05 03:53:48;;;;;;;11.13;6.57;;;;;;;;;;5076684;28;20040;-78
2023/05/05 03:56:14;;;;;;;11.70;6.60;;;;;;;;;;5090869;28;20048;-78
2023/05/05 03:58:40;;;;;;;8.57;6.43;;;;;;;;;;5094653;28;20047;-78
2023/05/05 04:01:09;;;;;;;12.17;6.70;;;;;;;;;;5077474;28;20023;-78
2023/05/05 04:03:38;;;;;;;8.40;6.57;;;;;;;;;;5080082;28;20013;-78
2023/05/05 04:06:04;;;;;;;10.47;6.10;;;;;;;;;;5093560;28;20036;-79
2023/05/05 04:08:31;;;;;;;9.13;5.97;;;;;;;;;;5081022;28;20037;-79
2023/05/05 04:10:57;;;;;;;8.10;6.03;;;;;;;;;;5073791;28;20025;-78
2023/05/05 04:13:25;;;;;;;10.67;6.50;;;;;;;;;;5076284;28;20020;-78
2023/05/05 04:15:51;;;;;;;10.83;6.73;;;;;;;;;;5077537;28;20092;-78
2023/05/05 04:18:18;;;;;;;8.30;5.67;;;;;;;;;;5078083;28;20085;-78
2023/05/05 04:20:44;;;;;;;11.53;6.30;;;;;;;;;;5078500;28;20029;-79
2023/05/05 04:23:12;;;;;;;11.00;6.50;;;;;;;;;;5075408;28;20020;-78
2023/05/05 04:25:39;;;;;;;10.13;6.60;;;;;;;;;;5078232;28;20032;-78
2023/05/05 04:28:07;;;;;;;8.90;6.23;;;;;;;;;;5079683;28;20036;-78
2023/05/05 04:30:35;;;;;;;11.93;6.00;;;;;;;;;;5080658;28;20089;-79
2023/05/05 04:33:02;;;;;;;11.33;6.40;;;;;;;;;;5094808;28;20080;-78
2023/05/05 04:35:30;;;;;;;11.47;6.37;;;;;;;;;;5079072;28;20017;-79
2023/05/05 04:37:56;;;;;;;10.20;6.77;;;;;;;;;;5144069;22;20067;-78
2023/05/05 04:40:22;;;;;;;12.70;6.80;;;;;;;;;;5077324;28;20044;-80
2023/05/05 04:42:48;;;;;;;15.37;6.13;;;;;;;;;;5079610;28;20017;-79
2023/05/05 04:45:14;;;;;;;10.23;6.17;;;;;;;;;;5078723;28;20033;-78
2023/05/05 04:47:48;;;;;;;10.40;5.93;;;;;;;;;;5079848;28;20067;-78
2023/05/05 04:50:14;;;;;;;10.23;5.73;;;;;;;;;;5078689;28;20043;-78
2023/05/05 04:52:40;;;;;;;8.50;6.13;;;;;;;;;;5090505;28;20100;-78
2023/05/05 04:55:10;;;;;;;8.33;5.97;;;;;;;;;;5079640;28;20148;-78
2023/05/05 04:57:36;;;;;;;8.00;5.40;;;;;;;;;;5075542;28;20034;-78
2023/05/05 05:00:04;;;;;;;12.83;6.80;;;;;;;;;;5077324;28;20074;-78
2023/05/05 05:02:36;;;;;;;9.77;6.23;;;;;;;;;;5079513;28;20081;-79
2023/05/05 05:05:02;;;;;;;8.82;6.25;;;;;;;;;;5079320;28;20028;-77
2023/05/05 05:07:28;;;;;;;8.40;6.00;;;;;;;;;;5078525;28;20024;-78
2023/05/05 05:09:54;;;;;;;12.37;6.33;;;;;;;;;;5078901;28;20028;-79
2023/05/05 05:12:20;;;;;;;9.07;6.60;;;;;;;;;;5076541;28;20099;-79
2023/05/05 05:14:46;;;;;;;7.80;6.53;;;;;;;;;;5079018;28;20024;-78
2023/05/05 05:17:12;;;;;;;10.80;6.43;;;;;;;;;;5078403;28;20009;-78
2023/05/05 05:19:38;;;;;;;12.13;6.57;;;;;;;;;;5077280;28;20017;-77
2023/05/05 05:22:04;;;;;;;11.57;6.87;;;;;;;;;;5077911;28;20039;-78
2023/05/05 05:24:33;;;;;;;9.30;6.90;;;;;;;;;;5078718;28;20036;-79
2023/05/05 05:27:00;;;;;;;9.03;6.43;;;;;;;;;;5078941;28;20048;-78
2023/05/05 05:29:26;;;;;;;15.63;7.77;;;;;;;;;;5077927;28;20046;-77
2023/05/05 05:31:52;;;;;;;11.37;7.80;;;;;;;;;;5078732;28;20009;-78
2023/05/05 05:34:18;;;;;;;12.53;7.73;;;;;;;;;;5080517;28;20025;-77
2023/05/05 05:36:49;;;;;;;11.17;7.30;;;;;;;;;;5082092;28;20044;-78
2023/05/05 05:39:15;;;;;;;12.80;7.80;;;;;;;;;;5080674;28;20041;-78
2023/05/05 05:41:41;;;;;;;16.10;7.67;;;;;;;;;;5078512;28;20076;-77
2023/05/05 05:44:07;;;;;;;13.50;7.80;;;;;;;;;;5093543;28;20021;-78
2023/05/05 05:46:33;;;;;;;17.43;7.67;;;;;;;;;;5082301;28;20021;-77
2023/05/05 05:48:59;;;;;;;10.20;7.77;;;;;;;;;;5078568;28;20009;-79
2023/05/05 05:51:26;;;;;;;11.60;8.07;;;;;;;;;;5079924;28;20037;-80
2023/05/05 05:54:02;;;;;;;14.23;8.17;;;;;;;;;;5078347;28;20036;-79
2023/05/05 05:56:31;;;;;;;15.90;8.63;;;;;;;;;;5096919;28;20025;-78
2023/05/05 05:58:57;;;;;;;14.53;8.40;;;;;;;;;;5094378;28;20017;-78
2023/05/05 06:01:23;;;;;;;17.13;8.70;;;;;;;;;;5078577;28;20071;-77
2023/05/05 06:03:54;;;;;;;15.17;8.60;;;;;;;;;;5099872;28;20032;-78
2023/05/05 06:06:20;;;;;;;22.30;10.07;;;;;;;;;;5078830;28;20028;-77
2023/05/05 06:08:46;;;;;;;19.67;9.97;;;;;;;;;;5078652;28;20063;-78
2023/05/05 06:11:12;;;;;;;13.50;8.57;;;;;;;;;;5079154;28;20097;-77
2023/05/05 06:13:38;;;;;;;15.83;9.90;;;;;;;;;;5099793;28;20086;-78
2023/05/05 06:16:04;;;;;;;16.40;9.43;;;;;;;;;;5075581;28;20084;-77
2023/05/05 06:18:33;;;;;;;16.77;9.30;;;;;;;;;;5080939;28;20025;-78
2023/05/05 06:20:59;;;;;;;14.03;10.17;;;;;;;;;;5314782;22;20041;-79
2023/05/05 06:23:25;;;;;;;25.13;10.20;;;;;;;;;;5070348;28;20033;-77
2023/05/05 06:25:54;;;;;;;15.00;10.00;;;;;;;;;;5070704;28;20104;-79
2023/05/05 06:28:24;;;;;;;20.42;10.85;;;;;;;;;;5069097;28;20024;-78
2023/05/05 06:30:51;;;;;;;23.13;11.23;;;;;;;;;;5069178;28;20043;-79
2023/05/05 06:33:17;;;;;;;16.80;10.93;;;;;;;;;;5070465;28;20036;-78
2023/05/05 06:35:43;;;;;;;23.40;12.23;;;;;;;;;;5070827;28;20020;-79
2023/05/05 06:38:09;;;;;;;22.95;11.52;;;;;;;;;;5068761;28;20021;-79
2023/05/05 06:40:35;;;;;;;20.20;11.52;;;;;;;;;;5068829;28;20060;-80
2023/05/05 06:43:04;;;;;;;19.33;12.10;;;;;;;;;;5068128;28;20048;-78
2023/05/05 06:45:30;;;;;;;17.05;11.90;;;;;;;;;;5068120;28;20035;-78
2023/05/05 06:47:56;;;;;;;18.08;12.00;;;;;;;;;;5068462;28;20032;-79
2023/05/05 06:50:22;;;;;;;21.40;11.00;;;;;;;;;;5069427;28;20025;-78
2023/05/05 06:52:48;;;;;;;16.15;11.70;;;;;;;;;;5069549;28;20036;-78
2023/05/05 06:55:17;;;;;;;19.05;12.63;;;;;;;;;;5069481;28;20032;-79
2023/05/05 06:57:43;;;;;;;17.67;12.13;;;;;;;;;;5067696;28;20028;-79
2023/05/05 07:00:10;;;;;;;18.58;12.93;;;;;;;;;;5068215;28;20041;-79
2023/05/05 07:02:38;;;;;;;18.73;12.40;;;;;;;;;;5066163;28;20059;-81
2023/05/05 07:05:04;;;;;;;15.77;12.68;;;;;;;;;;5070172;28;20030;-79
2023/05/05 07:07:31;;;;;;;18.10;12.75;;;;;;;;;;5067003;28;20052;-78
2023/05/05 07:09:57;;;;;;;17.17;12.00;;;;;;;;;;5065470;28;20052;-79
2023/05/05 07:12:23;;;;;;;17.55;12.18;;;;;;;;;;5068512;28;20101;-81
2023/05/05 07:14:49;;;;;;;16.77;12.57;;;;;;;;;;5067866;28;20043;-79
2023/05/05 07:17:15;;;;;;;21.58;12.90;;;;;;;;;;5064171;28;20036;-76
2023/05/05 07:19:42;;;;;;;19.42;13.07;;;;;;;;;;5065771;28;20013;-79
2023/05/05 07:22:08;;;;;;;18.83;12.02;;;;;;;;;;5065744;28;20029;-78
2023/05/05 07:24:34;;;;;;;25.40;13.32;;;;;;;;;;5066777;28;20044;-79
2023/05/05 07:27:00;;;;;;;18.58;13.57;;;;;;;;;;5065716;28;20037;-79
2023/05/05 07:29:26;;;;;;;14.68;11.48;;;;;;;;;;5067288;28;20047;-78
2023/05/05 07:31:52;;;;;;;10.85;9.38;;;;;;;;;;5067315;28;20020;-79
2023/05/05 07:34:18;;;;;;;16.45;11.48;;;;;;;;;;5067779;28;20020;-78
2023/05/05 07:36:47;;;;;;;12.50;10.88;;;;;;;;;;5068394;28;20109;-79
2023/05/05 07:39:14;;;;;;;12.52;8.98;;;;;;;;;;5066800;28;20032;-78
2023/05/05 07:41:43;;;;;;;12.77;9.15;;;;;;;;;;5065473;28;20037;-78
2023/05/05 07:44:09;;;;;;;15.20;11.20;;;;;;;;;;5068180;28;20014;-77
2023/05/05 07:46:37;;;;;;;16.15;10.45;;;;;;;;;;5068929;28;20033;-78
2023/05/05 07:49:06;;;;;;;15.20;10.45;;;;;;;;;;5066306;28;20018;-78
2023/05/05 07:51:32;;;;;;;13.43;9.10;;;;;;;;;;5065453;28;20024;-79
2023/05/05 07:54:01;;;;;;;12.40;9.65;;;;;;;;;;5067362;28;20036;-78
2023/05/05 07:56:29;;;;;;;14.13;9.75;;;;;;;;;;5082658;28;20021;-77
2023/05/05 07:58:55;;;;;;;11.63;8.13;;;;;;;;;;5067844;28;20033;-78
2023/05/05 08:01:21;;;;;;;12.77;6.97;;;;;;;;;;5065606;28;20037;-78
2023/05/05 08:03:47;;;;;;;11.63;7.53;;;;;;;;;;5066014;28;20024;-78
2023/05/05 08:06:20;;;;;;;10.13;6.22;;;;;;;;;;5065812;28;20021;-79
2023/05/05 08:08:47;;;;;;;10.70;6.70;;;;;;;;;;5068605;28;20016;-79
2023/05/05 08:11:14;;;;;;;9.18;6.70;;;;;;;;;;5069804;28;20028;-79
2023/05/05 08:13:44;;;;;;;11.68;8.82;;;;;;;;;;5067633;28;20040;-79
2023/05/05 08:16:10;;;;;;;13.13;9.20;;;;;;;;;;5069217;28;20029;-78
2023/05/05 08:18:37;;;;;;;14.00;9.35;;;;;;;;;;5083212;28;20036;-77
2023/05/05 08:21:14;;;;;;;12.57;8.45;;;;;;;;;;5063033;28;20044;-78
2023/05/05 08:23:47;;;;;;;15.20;8.38;;;;;;;;;;5065323;28;20021;-81
2023/05/05 08:26:13;;;;;;;9.40;7.90;;;;;;;;;;5065039;28;20036;-78
2023/05/05 08:28:42;;;;;;;13.77;8.50;;;;;;;;;;5063179;28;20987;-82
2023/05/05 08:31:09;;;;;;;12.65;8.98;;;;;;;;;;5068043;28;20051;-78
2023/05/05 08:33:37;;;;;;;15.30;10.68;;;;;;;;;;5068995;28;20041;-79
2023/05/05 08:36:04;;;;;;;16.92;11.00;;;;;;;;;;5067781;28;20025;-78
2023/05/05 08:38:30;;;;;;;16.40;12.38;;;;;;;;;;5065301;28;20024;-78
2023/05/05 08:40:56;;;;;;;18.58;14.25;;;;;;;;;;5066885;28;20052;-79
2023/05/05 08:43:22;;;;;;;21.88;14.25;;;;;;;;;;5067343;28;20025;-78
2023/05/05 08:45:52;;;;;;;16.25;13.40;;;;;;;;;;5066106;28;20031;-79
2023/05/05 08:48:19;;;;;;;16.55;13.43;;;;;;;;;;5067701;28;20021;-79
2023/05/05 08:50:51;;;;;;;22.17;14.27;;;;;;;;;;5066560;28;20029;-79
2023/05/05 08:53:22;;;;;;;17.15;14.27;;;;;;;;;;5065829;28;20041;-78
2023/05/05 08:55:54;;;;;;;18.85;14.13;;;;;;;;;;5065169;28;20036;-80
2023/05/05 08:58:22;;;;;;;20.75;14.70;;;;;;;;;;5066378;28;20041;-81
2023/05/05 09:00:49;;;;;;;18.25;13.55;;;;;;;;;;5064560;28;20071;-79
2023/05/05 09:03:15;;;;;;;18.52;13.68;;;;;;;;;;5064183;28;20068;-77
2023/05/05 09:05:42;;;;;;;20.40;14.88;;;;;;;;;;5065437;28;20025;-78
2023/05/05 09:08:10;;;;;;;17.95;13.50;;;;;;;;;;5065322;28;20029;-78
2023/05/05 09:10:39;;;;;;;16.52;12.82;;;;;;;;;;5063485;28;20028;-78
2023/05/05 09:13:06;;;;;;;16.88;13.52;;;;;;;;;;5065133;28;20018;-81
2023/05/05 09:15:32;;;;;;;15.65;12.27;;;;;;;;;;5068479;28;20089;-79
2023/05/05 09:17:59;;;;;;;25.20;15.15;;;;;;;;;;5065328;28;20036;-77
2023/05/05 09:20:32;;;;;;;23.98;16.25;;;;;;;;;;5063184;28;20122;-78
2023/05/05 09:23:06;;;;;;;21.65;14.10;;;;;;;;;;5064932;28;20039;-79
2023/05/05 09:25:32;;;;;;;16.13;13.48;;;;;;;;;;5067068;28;20012;-80
2023/05/05 09:27:58;;;;;;;18.05;13.18;;;;;;;;;;5064591;28;20016;-79
2023/05/05 09:30:25;;;;;;;22.05;16.58;;;;;;;;;;5062737;28;20092;-79
2023/05/05 09:32:52;;;;;;;22.85;17.38;;;;;;;;;;5064562;28;20037;-78
2023/05/05 09:35:19;;;;;;;22.67;17.52;;;;;;;;;;5061685;28;20017;-78
2023/05/05 09:37:53;;;;;;;20.13;17.77;;;;;;;;;;5063840;28;20033;-79
2023/05/05 09:40:19;;;;;;;20.52;16.95;;;;;;;;;;5066107;28;20040;-78
2023/05/05 09:42:48;;;;;;;19.55;15.65;;;;;;;;;;5066290;28;20010;-78
2023/05/05 09:45:17;;;;;;;21.48;14.55;;;;;;;;;;5063644;28;20044;-80
2023/05/05 09:47:44;;;;;;;22.05;14.65;;;;;;;;;;5061811;28;20043;-80
2023/05/05 09:50:14;;;;;;;20.35;16.20;;;;;;;;;;5062444;28;20028;-81
2023/05/05 09:52:54;;;;;;;21.02;14.63;;;;;;;;;;5061806;28;20093;-80
2023/05/05 09:55:20;;;;;;;18.38;15.00;;;;;;;;;;5061176;28;20025;-79
2023/05/05 09:57:46;;;;;;;19.63;12.82;;;;;;;;;;5063719;28;20067;-78
2023/05/05 10:00:13;;;;;;;17.77;12.05;;;;;;;;;;5066862;28;20052;-79
2023/05/05 10:02:39;;;;;;;23.88;14.48;;;;;;;;;;5050615;28;20073;-78
2023/05/05 10:05:05;;;;;;;16.45;11.23;;;;;;;;;;5060087;28;20049;-78
2023/05/05 10:07:31;;;;;;;17.80;12.55;;;;;;;;;;5061241;28;20014;-79
2023/05/05 10:09:57;;;;;;;14.18;11.43;;;;;;;;;;5062027;28;20030;-78
2023/05/05 10:12:27;;;;;;;18.27;13.90;;;;;;;;;;5063424;28;20139;-77
2023/05/05 10:14:55;;;;;;;15.95;12.82;;;;;;;;;;5063000;28;20021;-78
2023/05/05 10:17:24;;;;;;;17.80;12.98;;;;;;;;;;5060309;28;20043;-78
2023/05/05 10:19:56;;;;;;;15.93;12.25;;;;;;;;;;5064815;28;20136;-79
2023/05/05 10:22:22;;;;;;;17.75;13.25;;;;;;;;;;5064336;28;20029;-78
2023/05/05 10:24:52;;;;;;;20.20;13.40;;;;;;;;;;5068753;28;20026;-78
2023/05/05 10:27:25;;;;;;;19.58;14.60;;;;;;;;;;5068365;28;21418;-78
2023/05/05 10:29:54;;;;;;;18.95;13.95;;;;;;;;;;5063963;28;20029;-80
2023/05/05 10:32:28;;;;;;;16.50;12.48;;;;;;;;;;5064137;28;20027;-78
2023/05/05 10:35:07;;;;;;;16.83;11.77;;;;;;;;;;5068612;28;20106;-78
2023/05/05 10:37:35;;;;;;;15.23;10.63;;;;;;;;;;5065761;28;20036;-78
2023/05/05 10:40:01;;;;;;;17.45;12.85;;;;;;;;;;5064458;28;20037;-78
2023/05/05 10:42:27;;;;;;;16.00;12.35;;;;;;;;;;5065157;28;20033;-78
2023/05/05 10:44:56;;;;;;;20.48;13.50;;;;;;;;;;5063926;28;20105;-79
2023/05/05 10:47:22;;;;;;;22.52;12.32;;;;;;;;;;5068363;28;20029;-78
2023/05/05 10:49:54;;;;;;;13.23;10.50;;;;;;;;;;5064398;28;20037;-78
2023/05/05 10:52:25;;;;;;;14.02;10.00;;;;;;;;;;5063301;28;20071;-78
2023/05/05 10:54:58;;;;;;;17.03;10.23;;;;;;;;;;5067327;28;20009;-79
2023/05/05 10:57:26;;;;;;;11.75;9.15;;;;;;;;;;5068414;28;20043;-79
2023/05/05 10:59:52;;;;;;;11.38;9.30;;;;;;;;;;5065471;28;20040;-79
2023/05/05 11:02:22;;;;;;;12.85;9.80;;;;;;;;;;5064507;28;20021;-79
2023/05/05 11:05:03;;;;;;;12.55;9.25;;;;;;;;;;5065104;28;20013;-79
2023/05/05 11:07:29;;;;;;;15.23;9.90;;;;;;;;;;5066866;28;20055;-77
2023/05/05 11:09:57;;;;;;;15.13;10.23;;;;;;;;;;5068243;28;20033;-79
2023/05/05 11:12:25;;;;;;;18.88;9.52;;;;;;;;;;5066710;28;20029;-80
2023/05/05 11:15:12;;;;;;;10.43;8.75;;;;;;;;;;5069666;28;20009;-78
2023/05/05 11:17:48;;;;;;;10.73;7.40;;;;;;;;;;5071631;28;20025;-78
2023/05/05 11:20:17;;;;;;;5.90;4.82;;;;;;;;;;5070946;28;20017;-79
2023/05/05 11:23:05;;;;;;;5.75;3.50;;;;;;;;;;5067562;28;20033;-79
2023/05/05 11:25:34;;;;;;;5.63;3.50;;;;;;;;;;5071675;28;20059;-78
2023/05/05 11:28:07;;;;;;;5.03;3.92;;;;;;;;;;5071193;28;20025;-79
2023/05/05 11:30:33;;;;;;;5.88;2.85;;;;;;;;;;5067258;28;20026;-79
2023/05/05 11:33:19;;;;;;;3.17;2.75;;;;;;;;;;5070983;28;20025;-78
2023/05/05 11:35:55;;;;;;;5.93;2.50;;;;;;;;;;5061141;28;20420;-77
2023/05/05 11:38:30;;;;;;;5.63;3.33;;;;;;;;;;5070524;28;20035;-77
2023/05/05 11:41:05;;;;;;;11.67;3.47;;;;;;;;;;5070425;28;20025;-78
2023/05/05 11:43:32;;;;;;;11.17;5.63;;;;;;;;;;5072486;28;20080;-78
2023/05/05 11:46:11;;;;;;;13.83;9.60;;;;;;;;;;5068551;28;20036;-78
2023/05/05 11:48:47;;;;;;;20.43;9.93;;;;;;;;;;5070155;28;20013;-78
2023/05/05 11:51:16;;;;;;;25.77;12.93;;;;;;;;;;5069873;28;20009;-78
2023/05/05 11:53:43;;;;;;;22.10;11.40;;;;;;;;;;5067640;28;20033;-78
2023/05/05 11:56:17;;;;;;;28.30;14.47;;;;;;;;;;5064022;28;20182;-77
2023/05/05 11:59:05;;;;;;;32.27;16.53;;;;;;;;;;5067702;28;20025;-77
2023/05/05 12:01:34;;;;;;;24.90;14.57;;;;;;;;;;5067336;28;20028;-78
2023/05/05 12:04:03;;;;;;;22.52;13.55;;;;;;;;;;5067711;28;20005;-78
2023/05/05 12:06:42;;;;;;;;;;;;;;;;;;;;;
2023/05/05 12:09:35;;;;;;;25.77;15.05;;;;;;;;;;5069036;28;20207;-79
2023/05/05 12:12:03;;;;;;;21.42;13.40;;;;;;;;;;5061482;28;20038;-78
2023/05/05 12:14:29;;;;;;;19.67;12.05;;;;;;;;;;5065232;28;20025;-78
2023/05/05 12:17:00;;;;;;;20.23;12.25;;;;;;;;;;5065027;28;21366;-77
2023/05/05 12:19:32;;;;;;;15.25;9.70;;;;;;;;;;5064156;28;20099;-76
2023/05/05 12:22:00;;;;;;;8.00;5.35;;;;;;;;;;5064626;28;20037;-77
2023/05/05 12:24:29;;;;;;;7.88;5.07;;;;;;;;;;5065241;28;20030;-78
2023/05/05 12:26:55;;;;;;;9.80;5.40;;;;;;;;;;5065829;28;20134;-78
2023/05/05 12:29:36;;;;;;;18.85;5.90;;;;;;;;;;5063896;28;20025;-78
2023/05/05 12:32:04;;;;;;;9.85;5.93;;;;;;;;;;5065210;28;20098;-79
2023/05/05 12:34:41;;;;;;;10.85;4.65;;;;;;;;;;5067136;28;20025;-78
2023/05/05 12:37:14;;;;;;;11.95;4.57;;;;;;;;;;5082995;28;20013;-79
2023/05/05 12:39:45;;;;;;;9.98;5.22;;;;;;;;;;5066350;28;20036;-78
2023/05/05 12:42:24;;;;;;;;;;;;;;;;;;;;;
2023/05/05 12:45:11;;;;;;;6.30;3.65;;;;;;;;;;5065739;28;20075;-78
2023/05/05 12:50:38;;;;;;;6.22;4.22;;;;;;;;;;5066504;28;20033;-78
2023/05/05 12:53:04;;;;;;;9.20;5.05;;;;;;;;;;5080482;28;20123;-79
2023/05/05 12:55:57;;;;;;;8.68;5.63;;;;;;;;;;5064725;28;20183;-79
2023/05/05 12:58:26;;;;;;;8.98;6.38;;;;;;;;;;5063894;28;20025;-78
2023/05/05 13:01:12;;;;;;;7.85;5.43;;;;;;;;;;5062139;28;20097;-78
2023/05/05 13:03:41;;;;;;;6.50;5.72;;;;;;;;;;5060554;28;20021;-78
2023/05/05 13:06:40;;;;;;;9.35;5.78;;;;;;;;;;5077544;28;20169;-78
2023/05/05 13:09:07;;;;;;;6.93;4.88;;;;;;;;;;5037557;28;20056;-78
2023/05/05 13:11:37;;;;;;;9.73;5.13;;;;;;;;;;5059729;28;20041;-79
2023/05/05 13:14:06;;;;;;;7.07;5.05;;;;;;;;;;5062140;28;20018;-78
2023/05/05 13:16:35;;;;;;;8.77;4.88;;;;;;;;;;5061238;28;20040;-78
2023/05/05 13:19:03;;;;;;;8.70;5.32;;;;;;;;;;5063350;28;20027;-78
2023/05/05 13:21:30;;;;;;;9.20;6.18;;;;;;;;;;5077378;28;20052;-79
2023/05/05 13:23:56;;;;;;;8.25;5.40;;;;;;;;;;5061396;28;20025;-78
2023/05/05 13:26:27;;;;;;;9.48;5.75;;;;;;;;;;5059958;28;21170;-79
2023/05/05 13:28:54;;;;;;;7.67;5.07;;;;;;;;;;5061712;28;20033;-78
2023/05/05 13:31:20;;;;;;;8.02;5.80;;;;;;;;;;5063176;28;20025;-78
2023/05/05 13:33:46;;;;;;;10.00;6.70;;;;;;;;;;5066281;28;20044;-79
2023/05/05 13:36:14;;;;;;;15.15;6.30;;;;;;;;;;5078405;28;20043;-79
2023/05/05 13:38:43;;;;;;;11.55;6.13;;;;;;;;;;5062508;28;20088;-78
2023/05/05 13:41:12;;;;;;;12.55;6.60;;;;;;;;;;5059229;28;20021;-78
2023/05/05 13:43:38;;;;;;;12.00;6.60;;;;;;;;;;5062202;28;20029;-78
2023/05/05 13:46:07;;;;;;;14.75;6.78;;;;;;;;;;5062638;28;20036;-77
2023/05/05 13:48:35;;;;;;;11.45;6.25;;;;;;;;;;5065266;28;20017;-77
2023/05/05 13:51:01;;;;;;;11.15;5.95;;;;;;;;;;5064621;28;20021;-78
2023/05/05 13:53:27;;;;;;;12.43;5.60;;;;;;;;;;5066965;28;20071;-79
2023/05/05 13:55:54;;;;;;;9.50;6.38;;;;;;;;;;5085262;28;20018;-77
2023/05/05 13:58:23;;;;;;;13.57;4.60;;;;;;;;;;5067284;28;20017;-78
2023/05/05 14:00:54;;;;;;;8.13;4.03;;;;;;;;;;5069796;28;20029;-79
2023/05/05 14:03:22;;;;;;;11.32;4.03;;;;;;;;;;5067505;28;20029;-77
2023/05/05 14:05:51;;;;;;;7.50;3.53;;;;;;;;;;5067982;28;20116;-78
2023/05/05 14:08:18;;;;;;;7.00;2.13;;;;;;;;;;5067064;28;20031;-79
2023/05/05 14:10:44;;;;;;;5.38;2.83;;;;;;;;;;5085143;28;20085;-78
2023/05/05 14:13:14;;;;;;;5.30;1.88;;;;;;;;;;5067742;28;20028;-78
2023/05/05 14:15:40;;;;;;;4.47;2.20;;;;;;;;;;5062367;28;20029;-78
2023/05/05 14:18:06;;;;;;;6.63;2.20;;;;;;;;;;5062834;28;20013;-78
2023/05/05 14:20:32;;;;;;;5.93;2.53;;;;;;;;;;5068113;28;20112;-79
2023/05/05 14:22:58;;;;;;;5.55;2.83;;;;;;;;;;5062161;28;20059;-78
2023/05/05 14:25:24;;;;;;;3.05;1.95;;;;;;;;;;5081598;28;20009;-77
2023/05/05 14:27:50;;;;;;;6.00;2.67;;;;;;;;;;5065320;28;20036;-79
2023/05/05 14:30:18;;;;;;;5.88;2.45;;;;;;;;;;5067183;28;20043;-78
2023/05/05 14:32:47;;;;;;;5.63;2.33;;;;;;;;;;5083784;28;20028;-77
2023/05/05 14:35:15;;;;;;;7.97;2.80;;;;;;;;;;5066852;28;20022;-82
2023/05/05 14:37:41;;;;;;;16.55;3.10;;;;;;;;;;5066379;28;20033;-77
2023/05/05 14:40:08;;;;;;;7.88;4.15;;;;;;;;;;5062400;28;20024;-76
2023/05/05 14:42:34;;;;;;;11.05;5.50;;;;;;;;;;5072602;28;20028;-77
2023/05/05 14:45:04;;;;;;;11.23;6.43;;;;;;;;;;5069008;28;20023;-76